sensor_id;sensor_type;location;lat;lon;timestamp;P1;durP1;ratioP1;P2;durP2;ratioP2
3083;SDS011;1552;51.952;7.618;2022-09-30T00:01:08;12.47;;;9.20;;
3083;SDS011;1552;51.952;7.618;2022-09-30T00:03:35;10.27;;;9.07;;
3083;SDS011;1552;51.952;7.618;2022-09-30T00:06:03;16.57;;;10.33;;
3083;SDS011;1552;51.952;7.618;2022-09-30T00:08:29;11.57;;;9.93;;
3083;SDS011;1552;51.952;7.618;2022-09-30T00:10:59;12.43;;;10.40;;
3083;SDS011;1552;51.952;7.618;2022-09-30T00:13:26;13.57;;;10.33;;
3083;SDS011;1552;51.952;7.618;2022-09-30T00:15:53;11.67;;;9.23;;
3083;SDS011;1552;51.952;7.618;2022-09-30T00:18:19;14.23;;;10.33;;
3083;SDS011;1552;51.952;7.618;2022-09-30T00:20:47;12.70;;;10.73;;
3083;SDS011;1552;51.952;7.618;2022-09-30T00:23:14;11.53;;;10.03;;
3083;SDS011;1552;51.952;7.618;2022-09-30T00:25:40;11.57;;;10.17;;
3083;SDS011;1552;51.952;7.618;2022-09-30T00:28:06;11.23;;;10.00;;
3083;SDS011;1552;51.952;7.618;2022-09-30T00:30:33;14.90;;;11.07;;
3083;SDS011;1552;51.952;7.618;2022-09-30T00:32:59;15.13;;;10.47;;
3083;SDS011;1552;51.952;7.618;2022-09-30T00:35:25;13.80;;;10.97;;
3083;SDS011;1552;51.952;7.618;2022-09-30T00:37:53;12.40;;;10.60;;
3083;SDS011;1552;51.952;7.618;2022-09-30T00:40:19;14.33;;;11.43;;
3083;SDS011;1552;51.952;7.618;2022-09-30T00:42:46;14.57;;;10.70;;
3083;SDS011;1552;51.952;7.618;2022-09-30T00:45:13;13.30;;;11.90;;
3083;SDS011;1552;51.952;7.618;2022-09-30T00:47:45;14.77;;;11.57;;
3083;SDS011;1552;51.952;7.618;2022-09-30T00:50:18;15.27;;;11.07;;
3083;SDS011;1552;51.952;7.618;2022-09-30T00:52:46;12.90;;;11.60;;
3083;SDS011;1552;51.952;7.618;2022-09-30T00:55:19;15.70;;;12.87;;
3083;SDS011;1552;51.952;7.618;2022-09-30T00:57:47;14.40;;;11.70;;
3083;SDS011;1552;51.952;7.618;2022-09-30T01:00:13;12.93;;;11.63;;
3083;SDS011;1552;51.952;7.618;2022-09-30T01:02:39;14.40;;;11.67;;
3083;SDS011;1552;51.952;7.618;2022-09-30T01:05:06;15.67;;;12.43;;
3083;SDS011;1552;51.952;7.618;2022-09-30T01:07:33;14.10;;;11.53;;
3083;SDS011;1552;51.952;7.618;2022-09-30T01:10:00;12.97;;;11.60;;
3083;SDS011;1552;51.952;7.618;2022-09-30T01:12:28;13.00;;;11.60;;
3083;SDS011;1552;51.952;7.618;2022-09-30T01:14:54;12.50;;;11.20;;
3083;SDS011;1552;51.952;7.618;2022-09-30T01:17:24;12.37;;;11.07;;
3083;SDS011;1552;51.952;7.618;2022-09-30T01:20:18;14.20;;;11.73;;
3083;SDS011;1552;51.952;7.618;2022-09-30T01:22:50;13.43;;;12.03;;
3083;SDS011;1552;51.952;7.618;2022-09-30T01:25:27;13.20;;;11.67;;
3083;SDS011;1552;51.952;7.618;2022-09-30T01:28:07;15.67;;;12.57;;
3083;SDS011;1552;51.952;7.618;2022-09-30T01:30:40;13.93;;;11.70;;
3083;SDS011;1552;51.952;7.618;2022-09-30T01:33:18;14.90;;;10.80;;
3083;SDS011;1552;51.952;7.618;2022-09-30T01:35:53;12.70;;;11.17;;
3083;SDS011;1552;51.952;7.618;2022-09-30T01:38:25;13.50;;;11.97;;
3083;SDS011;1552;51.952;7.618;2022-09-30T01:40:53;17.90;;;13.00;;
3083;SDS011;1552;51.952;7.618;2022-09-30T01:43:26;12.83;;;10.90;;
3083;SDS011;1552;51.952;7.618;2022-09-30T01:45:57;13.27;;;11.23;;
3083;SDS011;1552;51.952;7.618;2022-09-30T01:48:27;13.17;;;11.03;;
3083;SDS011;1552;51.952;7.618;2022-09-30T01:50:57;15.07;;;12.63;;
3083;SDS011;1552;51.952;7.618;2022-09-30T01:53:26;15.87;;;11.53;;
3083;SDS011;1552;51.952;7.618;2022-09-30T01:55:57;13.30;;;10.50;;
3083;SDS011;1552;51.952;7.618;2022-09-30T01:58:27;14.93;;;12.43;;
3083;SDS011;1552;51.952;7.618;2022-09-30T02:00:56;14.47;;;11.27;;
3083;SDS011;1552;51.952;7.618;2022-09-30T02:03:27;12.90;;;11.13;;
3083;SDS011;1552;51.952;7.618;2022-09-30T02:05:55;13.73;;;11.20;;
3083;SDS011;1552;51.952;7.618;2022-09-30T02:08:27;18.30;;;13.23;;
3083;SDS011;1552;51.952;7.618;2022-09-30T02:10:56;18.10;;;13.13;;
3083;SDS011;1552;51.952;7.618;2022-09-30T02:13:24;15.17;;;12.00;;
3083;SDS011;1552;51.952;7.618;2022-09-30T02:15:54;17.17;;;12.20;;
3083;SDS011;1552;51.952;7.618;2022-09-30T02:18:24;14.13;;;12.40;;
3083;SDS011;1552;51.952;7.618;2022-09-30T02:20:54;12.77;;;11.37;;
3083;SDS011;1552;51.952;7.618;2022-09-30T02:23:24;18.30;;;13.00;;
3083;SDS011;1552;51.952;7.618;2022-09-30T02:25:53;15.50;;;12.80;;
3083;SDS011;1552;51.952;7.618;2022-09-30T02:28:21;13.10;;;11.30;;
3083;SDS011;1552;51.952;7.618;2022-09-30T02:30:51;15.97;;;12.80;;
3083;SDS011;1552;51.952;7.618;2022-09-30T02:33:19;15.63;;;12.13;;
3083;SDS011;1552;51.952;7.618;2022-09-30T02:35:51;13.47;;;10.57;;
3083;SDS011;1552;51.952;7.618;2022-09-30T02:38:20;14.90;;;11.20;;
3083;SDS011;1552;51.952;7.618;2022-09-30T02:40:49;15.17;;;10.77;;
3083;SDS011;1552;51.952;7.618;2022-09-30T02:43:17;13.63;;;11.43;;
3083;SDS011;1552;51.952;7.618;2022-09-30T02:45:46;15.83;;;11.17;;
3083;SDS011;1552;51.952;7.618;2022-09-30T02:48:17;14.63;;;10.60;;
3083;SDS011;1552;51.952;7.618;2022-09-30T02:50:49;12.10;;;10.20;;
3083;SDS011;1552;51.952;7.618;2022-09-30T02:53:20;13.57;;;11.03;;
3083;SDS011;1552;51.952;7.618;2022-09-30T02:58:32;14.53;;;11.47;;
3083;SDS011;1552;51.952;7.618;2022-09-30T03:01:00;11.80;;;10.53;;
3083;SDS011;1552;51.952;7.618;2022-09-30T03:03:28;15.17;;;10.73;;
3083;SDS011;1552;51.952;7.618;2022-09-30T03:05:55;13.37;;;10.97;;
3083;SDS011;1552;51.952;7.618;2022-09-30T03:08:22;14.17;;;11.30;;
3083;SDS011;1552;51.952;7.618;2022-09-30T03:10:49;12.87;;;11.23;;
3083;SDS011;1552;51.952;7.618;2022-09-30T03:13:31;13.43;;;11.53;;
3083;SDS011;1552;51.952;7.618;2022-09-30T03:16:04;14.80;;;11.10;;
3083;SDS011;1552;51.952;7.618;2022-09-30T03:18:36;13.53;;;11.20;;
3083;SDS011;1552;51.952;7.618;2022-09-30T03:21:09;14.67;;;11.00;;
3083;SDS011;1552;51.952;7.618;2022-09-30T03:23:41;12.03;;;10.10;;
3083;SDS011;1552;51.952;7.618;2022-09-30T03:26:16;13.70;;;12.23;;
3083;SDS011;1552;51.952;7.618;2022-09-30T03:28:46;11.80;;;10.47;;
3083;SDS011;1552;51.952;7.618;2022-09-30T03:31:16;12.80;;;10.17;;
3083;SDS011;1552;51.952;7.618;2022-09-30T03:33:48;14.77;;;11.07;;
3083;SDS011;1552;51.952;7.618;2022-09-30T03:36:18;13.07;;;11.00;;
3083;SDS011;1552;51.952;7.618;2022-09-30T03:38:51;14.27;;;12.03;;
3083;SDS011;1552;51.952;7.618;2022-09-30T03:41:20;17.30;;;12.13;;
3083;SDS011;1552;51.952;7.618;2022-09-30T03:43:48;12.73;;;10.90;;
3083;SDS011;1552;51.952;7.618;2022-09-30T03:46:17;12.00;;;10.73;;
3083;SDS011;1552;51.952;7.618;2022-09-30T03:48:47;15.27;;;10.67;;
3083;SDS011;1552;51.952;7.618;2022-09-30T03:51:14;16.93;;;12.10;;
3083;SDS011;1552;51.952;7.618;2022-09-30T03:53:41;13.07;;;11.00;;
3083;SDS011;1552;51.952;7.618;2022-09-30T03:56:09;16.37;;;12.07;;
3083;SDS011;1552;51.952;7.618;2022-09-30T03:58:35;14.80;;;10.97;;
3083;SDS011;1552;51.952;7.618;2022-09-30T04:01:05;15.60;;;11.43;;
3083;SDS011;1552;51.952;7.618;2022-09-30T04:03:31;12.27;;;10.87;;
3083;SDS011;1552;51.952;7.618;2022-09-30T04:05:59;14.03;;;11.80;;
3083;SDS011;1552;51.952;7.618;2022-09-30T04:08:25;13.00;;;10.87;;
3083;SDS011;1552;51.952;7.618;2022-09-30T04:10:52;13.90;;;10.70;;
3083;SDS011;1552;51.952;7.618;2022-09-30T04:13:19;14.00;;;10.33;;
3083;SDS011;1552;51.952;7.618;2022-09-30T04:15:51;18.03;;;11.40;;
3083;SDS011;1552;51.952;7.618;2022-09-30T04:18:18;15.17;;;10.97;;
3083;SDS011;1552;51.952;7.618;2022-09-30T04:20:44;15.93;;;10.93;;
3083;SDS011;1552;51.952;7.618;2022-09-30T04:23:11;15.33;;;10.90;;
3083;SDS011;1552;51.952;7.618;2022-09-30T04:25:37;16.70;;;12.40;;
3083;SDS011;1552;51.952;7.618;2022-09-30T04:28:03;17.80;;;11.50;;
3083;SDS011;1552;51.952;7.618;2022-09-30T04:30:31;13.67;;;11.83;;
3083;SDS011;1552;51.952;7.618;2022-09-30T04:32:57;15.67;;;10.83;;
3083;SDS011;1552;51.952;7.618;2022-09-30T04:35:24;19.20;;;12.40;;
3083;SDS011;1552;51.952;7.618;2022-09-30T04:37:50;15.53;;;11.90;;
3083;SDS011;1552;51.952;7.618;2022-09-30T04:40:17;15.20;;;11.20;;
3083;SDS011;1552;51.952;7.618;2022-09-30T04:42:43;18.67;;;11.83;;
3083;SDS011;1552;51.952;7.618;2022-09-30T04:45:12;16.43;;;11.03;;
3083;SDS011;1552;51.952;7.618;2022-09-30T04:47:43;19.40;;;11.57;;
3083;SDS011;1552;51.952;7.618;2022-09-30T04:50:10;14.50;;;10.40;;
3083;SDS011;1552;51.952;7.618;2022-09-30T04:52:40;12.73;;;10.00;;
3083;SDS011;1552;51.952;7.618;2022-09-30T04:55:07;15.67;;;11.23;;
3083;SDS011;1552;51.952;7.618;2022-09-30T04:57:35;12.47;;;9.63;;
3083;SDS011;1552;51.952;7.618;2022-09-30T05:00:02;15.73;;;11.23;;
3083;SDS011;1552;51.952;7.618;2022-09-30T05:02:29;13.47;;;9.93;;
3083;SDS011;1552;51.952;7.618;2022-09-30T05:04:56;13.87;;;10.87;;
3083;SDS011;1552;51.952;7.618;2022-09-30T05:07:23;17.00;;;11.90;;
3083;SDS011;1552;51.952;7.618;2022-09-30T05:09:50;14.17;;;10.83;;
3083;SDS011;1552;51.952;7.618;2022-09-30T05:12:17;15.20;;;11.00;;
3083;SDS011;1552;51.952;7.618;2022-09-30T05:14:44;15.67;;;10.90;;
3083;SDS011;1552;51.952;7.618;2022-09-30T05:17:10;16.10;;;10.90;;
3083;SDS011;1552;51.952;7.618;2022-09-30T05:19:37;16.00;;;11.07;;
3083;SDS011;1552;51.952;7.618;2022-09-30T05:22:04;15.33;;;11.57;;
3083;SDS011;1552;51.952;7.618;2022-09-30T05:24:31;14.93;;;10.70;;
3083;SDS011;1552;51.952;7.618;2022-09-30T05:26:57;15.17;;;11.17;;
3083;SDS011;1552;51.952;7.618;2022-09-30T05:29:23;17.23;;;10.97;;
3083;SDS011;1552;51.952;7.618;2022-09-30T05:31:51;15.73;;;10.27;;
3083;SDS011;1552;51.952;7.618;2022-09-30T05:34:17;13.27;;;9.83;;
3083;SDS011;1552;51.952;7.618;2022-09-30T05:36:45;12.23;;;9.80;;
3083;SDS011;1552;51.952;7.618;2022-09-30T05:39:13;14.07;;;10.70;;
3083;SDS011;1552;51.952;7.618;2022-09-30T05:41:40;16.20;;;9.63;;
3083;SDS011;1552;51.952;7.618;2022-09-30T05:44:06;16.37;;;10.70;;
3083;SDS011;1552;51.952;7.618;2022-09-30T05:46:33;15.53;;;10.40;;
3083;SDS011;1552;51.952;7.618;2022-09-30T05:48:59;13.90;;;9.50;;
3083;SDS011;1552;51.952;7.618;2022-09-30T05:51:27;15.57;;;11.20;;
3083;SDS011;1552;51.952;7.618;2022-09-30T05:53:53;16.30;;;10.17;;
3083;SDS011;1552;51.952;7.618;2022-09-30T05:56:21;12.70;;;9.83;;
3083;SDS011;1552;51.952;7.618;2022-09-30T05:58:47;15.00;;;10.50;;
3083;SDS011;1552;51.952;7.618;2022-09-30T06:01:15;14.53;;;10.23;;
3083;SDS011;1552;51.952;7.618;2022-09-30T06:03:41;15.93;;;10.73;;
3083;SDS011;1552;51.952;7.618;2022-09-30T06:06:08;14.97;;;10.30;;
3083;SDS011;1552;51.952;7.618;2022-09-30T06:08:35;13.17;;;9.57;;
3083;SDS011;1552;51.952;7.618;2022-09-30T06:11:06;13.93;;;10.07;;
3083;SDS011;1552;51.952;7.618;2022-09-30T06:13:36;14.53;;;10.37;;
3083;SDS011;1552;51.952;7.618;2022-09-30T06:16:02;19.87;;;10.63;;
3083;SDS011;1552;51.952;7.618;2022-09-30T06:18:29;16.47;;;10.33;;
3083;SDS011;1552;51.952;7.618;2022-09-30T06:20:56;13.87;;;10.50;;
3083;SDS011;1552;51.952;7.618;2022-09-30T06:23:22;19.63;;;12.27;;
3083;SDS011;1552;51.952;7.618;2022-09-30T06:25:49;17.97;;;11.87;;
3083;SDS011;1552;51.952;7.618;2022-09-30T06:28:15;19.10;;;12.73;;
3083;SDS011;1552;51.952;7.618;2022-09-30T06:30:43;21.37;;;13.40;;
3083;SDS011;1552;51.952;7.618;2022-09-30T06:33:10;21.10;;;11.67;;
3083;SDS011;1552;51.952;7.618;2022-09-30T06:35:36;17.87;;;12.40;;
3083;SDS011;1552;51.952;7.618;2022-09-30T06:38:05;13.40;;;10.80;;
3083;SDS011;1552;51.952;7.618;2022-09-30T06:40:31;15.13;;;11.53;;
3083;SDS011;1552;51.952;7.618;2022-09-30T06:42:58;18.03;;;11.97;;
3083;SDS011;1552;51.952;7.618;2022-09-30T06:45:25;18.77;;;12.87;;
3083;SDS011;1552;51.952;7.618;2022-09-30T06:47:56;21.70;;;12.13;;
3083;SDS011;1552;51.952;7.618;2022-09-30T06:50:22;17.77;;;11.77;;
3083;SDS011;1552;51.952;7.618;2022-09-30T06:52:48;17.60;;;11.90;;
3083;SDS011;1552;51.952;7.618;2022-09-30T06:55:16;18.37;;;12.30;;
3083;SDS011;1552;51.952;7.618;2022-09-30T06:57:43;18.07;;;12.53;;
3083;SDS011;1552;51.952;7.618;2022-09-30T07:00:12;21.40;;;13.03;;
3083;SDS011;1552;51.952;7.618;2022-09-30T07:02:41;18.30;;;12.67;;
3083;SDS011;1552;51.952;7.618;2022-09-30T07:05:09;27.30;;;14.83;;
3083;SDS011;1552;51.952;7.618;2022-09-30T07:07:35;25.77;;;14.23;;
3083;SDS011;1552;51.952;7.618;2022-09-30T07:10:02;17.87;;;12.07;;
3083;SDS011;1552;51.952;7.618;2022-09-30T07:12:29;20.13;;;12.73;;
3083;SDS011;1552;51.952;7.618;2022-09-30T07:14:56;17.70;;;11.80;;
3083;SDS011;1552;51.952;7.618;2022-09-30T07:17:24;18.57;;;11.87;;
3083;SDS011;1552;51.952;7.618;2022-09-30T07:19:50;15.87;;;11.90;;
3083;SDS011;1552;51.952;7.618;2022-09-30T07:22:18;17.47;;;12.47;;
3083;SDS011;1552;51.952;7.618;2022-09-30T07:24:56;14.20;;;11.57;;
3083;SDS011;1552;51.952;7.618;2022-09-30T07:27:23;18.77;;;13.40;;
3083;SDS011;1552;51.952;7.618;2022-09-30T07:29:49;18.37;;;11.87;;
3083;SDS011;1552;51.952;7.618;2022-09-30T07:32:16;22.93;;;13.87;;
3083;SDS011;1552;51.952;7.618;2022-09-30T07:34:43;18.27;;;13.87;;
3083;SDS011;1552;51.952;7.618;2022-09-30T07:37:10;20.80;;;13.67;;
3083;SDS011;1552;51.952;7.618;2022-09-30T07:39:39;18.03;;;13.17;;
3083;SDS011;1552;51.952;7.618;2022-09-30T07:42:06;17.37;;;12.97;;
3083;SDS011;1552;51.952;7.618;2022-09-30T07:44:32;23.47;;;13.13;;
3083;SDS011;1552;51.952;7.618;2022-09-30T07:47:02;21.97;;;13.73;;
3083;SDS011;1552;51.952;7.618;2022-09-30T07:49:28;20.07;;;13.77;;
3083;SDS011;1552;51.952;7.618;2022-09-30T07:51:56;26.90;;;13.60;;
3083;SDS011;1552;51.952;7.618;2022-09-30T07:54:25;22.83;;;15.20;;
3083;SDS011;1552;51.952;7.618;2022-09-30T07:56:53;20.53;;;13.83;;
3083;SDS011;1552;51.952;7.618;2022-09-30T07:59:20;23.20;;;13.73;;
3083;SDS011;1552;51.952;7.618;2022-09-30T08:01:47;22.30;;;14.00;;
3083;SDS011;1552;51.952;7.618;2022-09-30T08:04:14;21.00;;;14.03;;
3083;SDS011;1552;51.952;7.618;2022-09-30T08:06:41;26.67;;;15.13;;
3083;SDS011;1552;51.952;7.618;2022-09-30T08:09:09;22.83;;;13.93;;
3083;SDS011;1552;51.952;7.618;2022-09-30T08:11:36;26.17;;;15.70;;
3083;SDS011;1552;51.952;7.618;2022-09-30T08:14:04;22.07;;;13.73;;
3083;SDS011;1552;51.952;7.618;2022-09-30T08:16:31;24.80;;;15.43;;
3083;SDS011;1552;51.952;7.618;2022-09-30T08:18:59;19.67;;;14.47;;
3083;SDS011;1552;51.952;7.618;2022-09-30T08:21:26;23.53;;;15.03;;
3083;SDS011;1552;51.952;7.618;2022-09-30T08:23:56;22.03;;;14.30;;
3083;SDS011;1552;51.952;7.618;2022-09-30T08:26:23;20.10;;;14.23;;
3083;SDS011;1552;51.952;7.618;2022-09-30T08:28:56;20.10;;;14.33;;
3083;SDS011;1552;51.952;7.618;2022-09-30T08:31:23;20.70;;;13.57;;
3083;SDS011;1552;51.952;7.618;2022-09-30T08:33:50;18.77;;;14.50;;
3083;SDS011;1552;51.952;7.618;2022-09-30T08:36:17;20.67;;;13.60;;
3083;SDS011;1552;51.952;7.618;2022-09-30T08:38:44;22.80;;;13.53;;
3083;SDS011;1552;51.952;7.618;2022-09-30T08:41:15;20.90;;;14.27;;
3083;SDS011;1552;51.952;7.618;2022-09-30T08:43:44;21.17;;;13.87;;
3083;SDS011;1552;51.952;7.618;2022-09-30T08:46:16;20.47;;;13.67;;
3083;SDS011;1552;51.952;7.618;2022-09-30T08:48:49;20.03;;;14.10;;
3083;SDS011;1552;51.952;7.618;2022-09-30T08:51:29;20.77;;;14.47;;
3083;SDS011;1552;51.952;7.618;2022-09-30T08:53:56;19.27;;;14.17;;
3083;SDS011;1552;51.952;7.618;2022-09-30T08:56:24;18.07;;;13.93;;
3083;SDS011;1552;51.952;7.618;2022-09-30T08:58:53;20.37;;;13.23;;
3083;SDS011;1552;51.952;7.618;2022-09-30T09:01:23;20.03;;;13.63;;
3083;SDS011;1552;51.952;7.618;2022-09-30T09:03:52;20.83;;;13.87;;
3083;SDS011;1552;51.952;7.618;2022-09-30T09:06:21;18.43;;;13.13;;
3083;SDS011;1552;51.952;7.618;2022-09-30T09:08:58;20.73;;;14.43;;
3083;SDS011;1552;51.952;7.618;2022-09-30T09:11:34;19.57;;;13.87;;
3083;SDS011;1552;51.952;7.618;2022-09-30T09:14:04;20.47;;;13.43;;
3083;SDS011;1552;51.952;7.618;2022-09-30T09:16:33;21.03;;;14.10;;
3083;SDS011;1552;51.952;7.618;2022-09-30T09:19:04;20.43;;;14.23;;
3083;SDS011;1552;51.952;7.618;2022-09-30T09:21:40;22.20;;;13.93;;
3083;SDS011;1552;51.952;7.618;2022-09-30T09:24:13;18.97;;;12.43;;
3083;SDS011;1552;51.952;7.618;2022-09-30T09:26:39;19.07;;;13.40;;
3083;SDS011;1552;51.952;7.618;2022-09-30T09:29:09;21.77;;;13.37;;
3083;SDS011;1552;51.952;7.618;2022-09-30T09:31:40;20.67;;;12.67;;
3083;SDS011;1552;51.952;7.618;2022-09-30T09:34:09;19.53;;;12.87;;
3083;SDS011;1552;51.952;7.618;2022-09-30T09:36:40;18.40;;;13.37;;
3083;SDS011;1552;51.952;7.618;2022-09-30T09:39:16;16.03;;;12.47;;
3083;SDS011;1552;51.952;7.618;2022-09-30T09:41:48;16.27;;;13.40;;
3083;SDS011;1552;51.952;7.618;2022-09-30T09:44:18;22.10;;;14.10;;
3083;SDS011;1552;51.952;7.618;2022-09-30T09:46:47;19.07;;;13.17;;
3083;SDS011;1552;51.952;7.618;2022-09-30T09:49:27;17.77;;;12.07;;
3083;SDS011;1552;51.952;7.618;2022-09-30T09:51:56;18.17;;;13.27;;
3083;SDS011;1552;51.952;7.618;2022-09-30T09:54:27;20.47;;;11.50;;
3083;SDS011;1552;51.952;7.618;2022-09-30T09:56:55;19.73;;;12.30;;
3083;SDS011;1552;51.952;7.618;2022-09-30T09:59:21;21.23;;;12.03;;
3083;SDS011;1552;51.952;7.618;2022-09-30T10:02:00;15.07;;;10.97;;
3083;SDS011;1552;51.952;7.618;2022-09-30T10:04:28;14.80;;;10.47;;
3083;SDS011;1552;51.952;7.618;2022-09-30T10:06:57;15.70;;;10.40;;
3083;SDS011;1552;51.952;7.618;2022-09-30T10:09:28;12.27;;;9.53;;
3083;SDS011;1552;51.952;7.618;2022-09-30T10:14:40;15.80;;;10.03;;
3083;SDS011;1552;51.952;7.618;2022-09-30T10:17:16;12.20;;;9.43;;
3083;SDS011;1552;51.952;7.618;2022-09-30T10:19:45;15.33;;;9.30;;
3083;SDS011;1552;51.952;7.618;2022-09-30T10:22:18;12.73;;;9.40;;
3083;SDS011;1552;51.952;7.618;2022-09-30T10:24:44;16.70;;;9.57;;
3083;SDS011;1552;51.952;7.618;2022-09-30T10:27:20;16.77;;;10.00;;
3083;SDS011;1552;51.952;7.618;2022-09-30T10:29:51;15.90;;;10.03;;
3083;SDS011;1552;51.952;7.618;2022-09-30T10:32:17;14.27;;;9.43;;
3083;SDS011;1552;51.952;7.618;2022-09-30T10:34:45;13.30;;;9.60;;
3083;SDS011;1552;51.952;7.618;2022-09-30T10:37:19;14.17;;;8.40;;
3083;SDS011;1552;51.952;7.618;2022-09-30T10:39:49;13.37;;;9.53;;
3083;SDS011;1552;51.952;7.618;2022-09-30T10:42:19;13.80;;;9.23;;
3083;SDS011;1552;51.952;7.618;2022-09-30T10:44:48;15.63;;;9.83;;
3083;SDS011;1552;51.952;7.618;2022-09-30T10:47:18;14.47;;;9.73;;
3083;SDS011;1552;51.952;7.618;2022-09-30T10:49:47;16.43;;;9.63;;
3083;SDS011;1552;51.952;7.618;2022-09-30T10:52:15;14.93;;;9.83;;
3083;SDS011;1552;51.952;7.618;2022-09-30T10:54:45;13.57;;;9.97;;
3083;SDS011;1552;51.952;7.618;2022-09-30T10:57:13;13.37;;;9.90;;
3083;SDS011;1552;51.952;7.618;2022-09-30T10:59:40;15.57;;;10.53;;
3083;SDS011;1552;51.952;7.618;2022-09-30T11:02:16;15.83;;;10.70;;
3083;SDS011;1552;51.952;7.618;2022-09-30T11:04:49;15.27;;;10.80;;
3083;SDS011;1552;51.952;7.618;2022-09-30T11:07:20;16.87;;;11.07;;
3083;SDS011;1552;51.952;7.618;2022-09-30T11:09:51;16.43;;;11.73;;
3083;SDS011;1552;51.952;7.618;2022-09-30T11:12:22;15.03;;;12.07;;
3083;SDS011;1552;51.952;7.618;2022-09-30T11:14:50;15.73;;;10.50;;
3083;SDS011;1552;51.952;7.618;2022-09-30T11:17:26;14.63;;;11.17;;
3083;SDS011;1552;51.952;7.618;2022-09-30T11:19:55;17.10;;;11.90;;
3083;SDS011;1552;51.952;7.618;2022-09-30T11:22:32;16.57;;;12.60;;
3083;SDS011;1552;51.952;7.618;2022-09-30T11:25:00;19.50;;;11.70;;
3083;SDS011;1552;51.952;7.618;2022-09-30T11:27:30;14.53;;;12.30;;
3083;SDS011;1552;51.952;7.618;2022-09-30T11:30:03;14.03;;;11.83;;
3083;SDS011;1552;51.952;7.618;2022-09-30T11:32:43;14.27;;;11.40;;
3083;SDS011;1552;51.952;7.618;2022-09-30T11:35:18;12.97;;;10.47;;
3083;SDS011;1552;51.952;7.618;2022-09-30T11:37:53;14.10;;;10.90;;
3083;SDS011;1552;51.952;7.618;2022-09-30T11:40:28;13.03;;;9.70;;
3083;SDS011;1552;51.952;7.618;2022-09-30T11:42:56;13.53;;;9.37;;
3083;SDS011;1552;51.952;7.618;2022-09-30T11:45:28;13.43;;;9.50;;
3083;SDS011;1552;51.952;7.618;2022-09-30T11:48:02;14.40;;;9.53;;
3083;SDS011;1552;51.952;7.618;2022-09-30T11:50:35;12.23;;;9.23;;
3083;SDS011;1552;51.952;7.618;2022-09-30T11:53:09;11.82;;;8.65;;
3083;SDS011;1552;51.952;7.618;2022-09-30T11:58:24;10.65;;;9.02;;
3083;SDS011;1552;51.952;7.618;2022-09-30T12:00:51;11.60;;;8.90;;
3083;SDS011;1552;51.952;7.618;2022-09-30T12:03:21;13.87;;;8.87;;
3083;SDS011;1552;51.952;7.618;2022-09-30T12:05:52;15.35;;;9.07;;
3083;SDS011;1552;51.952;7.618;2022-09-30T12:08:21;11.27;;;8.67;;
3083;SDS011;1552;51.952;7.618;2022-09-30T12:10:50;9.50;;;8.40;;
3083;SDS011;1552;51.952;7.618;2022-09-30T12:13:19;11.50;;;8.02;;
3083;SDS011;1552;51.952;7.618;2022-09-30T12:15:47;11.00;;;8.20;;
3083;SDS011;1552;51.952;7.618;2022-09-30T12:18:15;11.43;;;8.83;;
3083;SDS011;1552;51.952;7.618;2022-09-30T12:20:44;14.63;;;8.77;;
3083;SDS011;1552;51.952;7.618;2022-09-30T12:23:15;9.43;;;8.37;;
3083;SDS011;1552;51.952;7.618;2022-09-30T12:25:45;8.93;;;7.73;;
3083;SDS011;1552;51.952;7.618;2022-09-30T12:28:15;9.37;;;7.63;;
3083;SDS011;1552;51.952;7.618;2022-09-30T12:31:05;12.15;;;8.40;;
3083;SDS011;1552;51.952;7.618;2022-09-30T12:33:47;9.50;;;8.13;;
3083;SDS011;1552;51.952;7.618;2022-09-30T12:36:21;11.57;;;7.73;;
3083;SDS011;1552;51.952;7.618;2022-09-30T12:38:56;11.57;;;8.33;;
3083;SDS011;1552;51.952;7.618;2022-09-30T12:41:37;8.05;;;6.03;;
3083;SDS011;1552;51.952;7.618;2022-09-30T12:46:52;9.13;;;5.68;;
3083;SDS011;1552;51.952;7.618;2022-09-30T12:49:22;6.30;;;5.70;;
3083;SDS011;1552;51.952;7.618;2022-09-30T12:51:51;7.18;;;5.72;;
3083;SDS011;1552;51.952;7.618;2022-09-30T12:54:22;7.07;;;4.75;;
3083;SDS011;1552;51.952;7.618;2022-09-30T12:56:52;8.40;;;5.30;;
3083;SDS011;1552;51.952;7.618;2022-09-30T12:59:19;7.10;;;5.15;;
3083;SDS011;1552;51.952;7.618;2022-09-30T13:01:49;11.25;;;5.53;;
3083;SDS011;1552;51.952;7.618;2022-09-30T13:04:17;7.50;;;5.75;;
3083;SDS011;1552;51.952;7.618;2022-09-30T13:07:04;8.65;;;5.15;;
3083;SDS011;1552;51.952;7.618;2022-09-30T13:09:34;5.78;;;4.80;;
3083;SDS011;1552;51.952;7.618;2022-09-30T13:12:14;7.15;;;4.75;;
3083;SDS011;1552;51.952;7.618;2022-09-30T13:14:41;5.28;;;4.30;;
3083;SDS011;1552;51.952;7.618;2022-09-30T13:17:22;7.25;;;4.32;;
3083;SDS011;1552;51.952;7.618;2022-09-30T13:19:49;5.97;;;4.47;;
3083;SDS011;1552;51.952;7.618;2022-09-30T13:22:40;7.22;;;3.65;;
3083;SDS011;1552;51.952;7.618;2022-09-30T13:25:12;5.80;;;4.65;;
3083;SDS011;1552;51.952;7.618;2022-09-30T13:27:40;7.10;;;5.03;;
3083;SDS011;1552;51.952;7.618;2022-09-30T13:33:03;6.13;;;3.85;;
3083;SDS011;1552;51.952;7.618;2022-09-30T13:35:30;4.53;;;3.80;;
3083;SDS011;1552;51.952;7.618;2022-09-30T13:38:09;6.90;;;4.65;;
3083;SDS011;1552;51.952;7.618;2022-09-30T13:40:36;5.38;;;4.78;;
3083;SDS011;1552;51.952;7.618;2022-09-30T13:43:06;5.75;;;3.83;;
3083;SDS011;1552;51.952;7.618;2022-09-30T13:45:35;4.45;;;3.88;;
3083;SDS011;1552;51.952;7.618;2022-09-30T13:48:04;7.00;;;3.22;;
3083;SDS011;1552;51.952;7.618;2022-09-30T13:50:35;4.40;;;3.28;;
3083;SDS011;1552;51.952;7.618;2022-09-30T13:53:04;4.45;;;2.90;;
3083;SDS011;1552;51.952;7.618;2022-09-30T13:55:32;4.97;;;3.25;;
3083;SDS011;1552;51.952;7.618;2022-09-30T13:58:06;3.92;;;3.03;;
3083;SDS011;1552;51.952;7.618;2022-09-30T14:00:39;4.85;;;2.88;;
3083;SDS011;1552;51.952;7.618;2022-09-30T14:03:16;3.15;;;2.80;;
3083;SDS011;1552;51.952;7.618;2022-09-30T14:05:48;5.18;;;3.25;;
3083;SDS011;1552;51.952;7.618;2022-09-30T14:11:09;6.85;;;3.22;;
3083;SDS011;1552;51.952;7.618;2022-09-30T14:13:41;4.13;;;3.40;;
3083;SDS011;1552;51.952;7.618;2022-09-30T14:16:33;3.97;;;3.08;;
3083;SDS011;1552;51.952;7.618;2022-09-30T14:19:05;5.85;;;3.25;;
3083;SDS011;1552;51.952;7.618;2022-09-30T14:21:34;4.00;;;3.15;;
3083;SDS011;1552;51.952;7.618;2022-09-30T14:24:07;5.70;;;3.20;;
3083;SDS011;1552;51.952;7.618;2022-09-30T14:29:31;3.08;;;2.78;;
3083;SDS011;1552;51.952;7.618;2022-09-30T14:32:00;4.55;;;3.13;;
3083;SDS011;1552;51.952;7.618;2022-09-30T14:34:35;5.22;;;2.92;;
3083;SDS011;1552;51.952;7.618;2022-09-30T14:37:01;9.23;;;3.25;;
3083;SDS011;1552;51.952;7.618;2022-09-30T14:39:28;3.33;;;3.03;;
3083;SDS011;1552;51.952;7.618;2022-09-30T14:41:57;5.13;;;3.30;;
3083;SDS011;1552;51.952;7.618;2022-09-30T14:44:25;8.77;;;3.80;;
3083;SDS011;1552;51.952;7.618;2022-09-30T14:46:54;8.88;;;3.60;;
3083;SDS011;1552;51.952;7.618;2022-09-30T14:49:25;6.28;;;3.30;;
3083;SDS011;1552;51.952;7.618;2022-09-30T14:51:56;7.28;;;3.00;;
3083;SDS011;1552;51.952;7.618;2022-09-30T14:54:25;3.72;;;2.92;;
3083;SDS011;1552;51.952;7.618;2022-09-30T14:56:53;4.88;;;3.10;;
3083;SDS011;1552;51.952;7.618;2022-09-30T14:59:20;6.32;;;3.33;;
3083;SDS011;1552;51.952;7.618;2022-09-30T15:01:49;6.40;;;3.45;;
3083;SDS011;1552;51.952;7.618;2022-09-30T15:04:18;6.45;;;3.85;;
3083;SDS011;1552;51.952;7.618;2022-09-30T15:06:46;6.03;;;3.75;;
3083;SDS011;1552;51.952;7.618;2022-09-30T15:09:15;7.85;;;4.10;;
3083;SDS011;1552;51.952;7.618;2022-09-30T15:11:41;6.70;;;3.20;;
3083;SDS011;1552;51.952;7.618;2022-09-30T15:14:10;5.83;;;3.70;;
3083;SDS011;1552;51.952;7.618;2022-09-30T15:16:43;6.97;;;4.10;;
3083;SDS011;1552;51.952;7.618;2022-09-30T15:19:11;6.10;;;3.83;;
3083;SDS011;1552;51.952;7.618;2022-09-30T15:21:40;3.08;;;2.65;;
3083;SDS011;1552;51.952;7.618;2022-09-30T15:24:07;5.32;;;3.50;;
3083;SDS011;1552;51.952;7.618;2022-09-30T15:26:33;5.28;;;3.53;;
3083;SDS011;1552;51.952;7.618;2022-09-30T15:29:02;6.85;;;3.25;;